Weather at Basa Aérea de Valencia-Bétera

Public forecast

Using degrees Celsius for public forecast. Weather courtesy of forecast.io.

Closest aviation weather report (METAR) to Basa Aérea de Valencia-Bétera

Closest report is Valencia Airport, 8.1 nm (15.1 km) S. Retrieved 2021/06/21 10:00 UTC (8 minutes ago):

LEVC 211000Z 26016KT 220V280 9999 FEW035 28/11 Q1010 NOSIG

Closest aviation forecast (TAF) to Basa Aérea de Valencia-Bétera

Closest forecast is Valencia Airport, 8.1 nm (15.1 km) S. Retrieved 2021/06/21 06:27 UTC (4 hours ago):

TAF LEVC 210500Z 2106/2206 VRB05KT 9999 FEW040 TX32/2115Z TN19/2106Z BECMG 2108/2110 27010KT PROB40 TEMPO 2114/2120 14010KT